Time,TemperatureF,DewpointF,PressureIn,WindDirection,WindDirectionDegrees,WindSpeedMPH,WindSpeedGustMPH,Humidity,HourlyPrecipIn,Conditions,Clouds,dailyrainin,SoftwareType,DateUTC
2013-03-03 00:01:00,41.0,20.0,30.18,SSW,200,0.0,0.0,42,0.00,,,0.00,,2013-03-03 07:01:00,
2013-03-03 00:11:00,41.0,20.0,30.18,SSW,200,0.0,0.0,42,0.00,,,0.00,,2013-03-03 07:11:00,
2013-03-03 00:21:00,40.0,19.0,30.18,SSW,200,0.0,0.0,43,0.00,,,0.00,,2013-03-03 07:21:00,
2013-03-03 00:31:00,40.0,18.0,30.18,SSW,200,0.0,0.0,41,0.00,,,0.00,,2013-03-03 07:31:00,
2013-03-03 00:42:00,40.0,18.0,30.18,SSW,200,0.0,0.0,41,0.00,,,0.00,,2013-03-03 07:42:00,
2013-03-03 00:52:00,40.0,20.0,30.18,SSW,199,0.0,0.0,45,0.00,,,0.00,,2013-03-03 07:52:00,
2013-03-03 01:01:00,39.0,21.0,30.18,SSW,200,0.0,0.0,48,0.00,,,0.00,,2013-03-03 08:01:00,
2013-03-03 01:11:00,39.0,21.0,30.18,SSW,200,0.0,0.0,48,0.00,,,0.00,,2013-03-03 08:11:00,
2013-03-03 01:21:00,39.0,20.0,30.17,SSW,200,0.0,0.0,46,0.00,,,0.00,,2013-03-03 08:21:00,
2013-03-03 01:31:00,38.0,19.0,30.17,SSW,200,0.0,0.0,45,0.00,,,0.00,,2013-03-03 08:31:00,
2013-03-03 01:41:00,38.0,19.0,30.17,SSW,200,0.0,0.0,45,0.00,,,0.00,,2013-03-03 08:41:00,
2013-03-03 01:54:00,37.0,19.0,30.16,WSW,238,0.0,1.0,48,0.00,,,0.00,,2013-03-03 08:54:00,
2013-03-03 02:01:00,37.0,18.0,30.16,WSW,238,0.0,0.0,45,0.00,,,0.00,,2013-03-03 09:01:00,
2013-03-03 02:11:00,37.0,18.0,30.16,WSW,238,0.0,0.0,45,0.00,,,0.00,,2013-03-03 09:11:00,
2013-03-03 02:21:00,36.0,17.0,30.15,WSW,238,0.0,1.0,46,0.00,,,0.00,,2013-03-03 09:21:00,
2013-03-03 02:32:00,36.0,18.0,30.15,WSW,238,0.0,0.0,47,0.00,,,0.00,,2013-03-03 09:32:00,
2013-03-03 02:41:00,36.0,18.0,30.15,WSW,238,0.0,0.0,47,0.00,,,0.00,,2013-03-03 09:41:00,
2013-03-03 02:52:00,35.0,19.0,30.14,WSW,238,0.0,0.0,51,0.00,,,0.00,,2013-03-03 09:52:00,
2013-03-03 03:01:00,35.0,18.0,30.13,WSW,238,0.0,0.0,49,0.00,,,0.00,,2013-03-03 10:01:00,
2013-03-03 03:11:00,35.0,18.0,30.13,WSW,238,0.0,0.0,49,0.00,,,0.00,,2013-03-03 10:11:00,
2013-03-03 03:21:00,35.0,18.0,30.12,WSW,238,0.0,0.0,49,0.00,,,0.00,,2013-03-03 10:21:00,
2013-03-03 03:32:00,34.0,16.0,30.12,WSW,238,0.0,0.0,48,0.00,,,0.00,,2013-03-03 10:32:00,
2013-03-03 03:42:00,34.0,16.0,30.12,WSW,238,0.0,0.0,48,0.00,,,0.00,,2013-03-03 10:42:00,
2013-03-03 03:52:00,34.0,17.0,30.12,WSW,238,0.0,0.0,49,0.00,,,0.00,,2013-03-03 10:52:00,
2013-03-03 04:01:00,34.0,17.0,30.12,WSW,238,0.0,0.0,49,0.00,,,0.00,,2013-03-03 11:01:00,
2013-03-03 04:11:00,34.0,17.0,30.12,WSW,238,0.0,0.0,49,0.00,,,0.00,,2013-03-03 11:11:00,
2013-03-03 04:21:00,33.0,16.0,30.11,WSW,239,0.0,1.0,49,0.00,,,0.00,,2013-03-03 11:21:00,
2013-03-03 04:32:00,32.0,17.0,30.12,WSW,239,0.0,0.0,53,0.00,,,0.00,,2013-03-03 11:32:00,
2013-03-03 04:42:00,32.0,17.0,30.12,WSW,239,0.0,0.0,53,0.00,,,0.00,,2013-03-03 11:42:00,
2013-03-03 04:52:00,31.0,17.0,30.11,WSW,239,0.0,0.0,56,0.00,,,0.00,,2013-03-03 11:52:00,
2013-03-03 05:01:00,31.0,16.0,30.11,WSW,239,0.0,0.0,53,0.00,,,0.00,,2013-03-03 12:01:00,
2013-03-03 05:11:00,31.0,16.0,30.11,WSW,239,0.0,0.0,53,0.00,,,0.00,,2013-03-03 12:11:00,
2013-03-03 05:21:00,31.0,16.0,30.11,WSW,239,0.0,0.0,53,0.00,,,0.00,,2013-03-03 12:21:00,
2013-03-03 05:32:00,31.0,15.0,30.11,WSW,239,0.0,0.0,51,0.00,,,0.00,,2013-03-03 12:32:00,
2013-03-03 05:42:00,31.0,15.0,30.11,WSW,239,0.0,0.0,51,0.00,,,0.00,,2013-03-03 12:42:00,
2013-03-03 05:53:00,31.0,15.0,30.11,WSW,239,0.0,0.0,52,0.00,,,0.00,,2013-03-03 12:53:00,
2013-03-03 06:01:00,31.0,15.0,30.11,WSW,239,0.0,0.0,52,0.00,,,0.00,,2013-03-03 13:01:00,
2013-03-03 06:11:00,31.0,15.0,30.11,WSW,239,0.0,0.0,52,0.00,,,0.00,,2013-03-03 13:11:00,
2013-03-03 06:22:00,31.0,16.0,30.11,WSW,239,0.0,0.0,54,0.00,,,0.00,,2013-03-03 13:22:00,
2013-03-03 06:32:00,30.0,17.0,30.11,WSW,238,0.0,0.0,58,0.00,,,0.00,,2013-03-03 13:32:00,
2013-03-03 06:42:00,30.0,17.0,30.11,WSW,238,0.0,0.0,58,0.00,,,0.00,,2013-03-03 13:42:00,
2013-03-03 06:52:00,30.0,18.0,30.12,WSW,239,0.0,0.0,61,0.00,,,0.00,,2013-03-03 13:52:00,
2013-03-03 07:02:00,29.0,16.0,30.12,WSW,239,0.0,0.0,59,0.00,,,0.00,,2013-03-03 14:02:00,
2013-03-03 07:11:00,29.0,16.0,30.12,WSW,239,0.0,0.0,59,0.00,,,0.00,,2013-03-03 14:11:00,
2013-03-03 07:21:00,29.0,17.0,30.12,WSW,239,0.0,0.0,60,0.00,,,0.00,,2013-03-03 14:21:00,
2013-03-03 07:32:00,29.0,15.0,30.12,WSW,238,0.0,0.0,56,0.00,,,0.00,,2013-03-03 14:32:00,
2013-03-03 07:42:00,29.0,15.0,30.12,WSW,238,0.0,0.0,56,0.00,,,0.00,,2013-03-03 14:42:00,
2013-03-03 07:52:00,31.0,17.0,30.13,WSW,239,0.0,0.0,55,0.00,,,0.00,,2013-03-03 14:52:00,
2013-03-03 08:01:00,33.0,15.0,30.13,WSW,238,0.0,0.0,48,0.00,,,0.00,,2013-03-03 15:01:00,
2013-03-03 08:11:00,33.0,15.0,30.13,WSW,238,0.0,0.0,48,0.00,,,0.00,,2013-03-03 15:11:00,
2013-03-03 08:22:00,36.0,18.0,30.13,WSW,239,0.0,0.0,48,0.00,,,0.00,,2013-03-03 15:22:00,
2013-03-03 08:32:00,39.0,17.0,30.13,WSW,239,0.0,0.0,41,0.00,,,0.00,,2013-03-03 15:32:00,
2013-03-03 08:42:00,39.0,17.0,30.13,WSW,239,0.0,0.0,41,0.00,,,0.00,,2013-03-03 15:42:00,
2013-03-03 08:52:00,41.0,17.0,30.13,ESE,111,0.0,3.0,37,0.00,,,0.00,,2013-03-03 15:52:00,
2013-03-03 09:01:00,44.0,16.0,30.13,SW,219,1.0,4.0,32,0.00,,,0.00,,2013-03-03 16:01:00,
2013-03-03 09:12:00,44.0,16.0,30.13,SW,219,1.0,4.0,32,0.00,,,0.00,,2013-03-03 16:12:00,
2013-03-03 09:21:00,47.0,17.0,30.12,SSE,158,1.0,4.0,30,0.00,,,0.00,,2013-03-03 16:21:00,
2013-03-03 09:32:00,50.0,17.0,30.12,SSW,208,2.0,4.0,27,0.00,,,0.00,,2013-03-03 16:32:00,
2013-03-03 09:42:00,50.0,17.0,30.12,SSW,208,2.0,4.0,27,0.00,,,0.00,,2013-03-03 16:42:00,
2013-03-03 09:52:00,53.0,17.0,30.11,SSE,154,2.0,6.0,24,0.00,,,0.00,,2013-03-03 16:52:00,
2013-03-03 10:01:00,55.0,19.0,30.10,ESE,108,1.0,5.0,24,0.00,,,0.00,,2013-03-03 17:01:00,
2013-03-03 10:11:00,57.0,20.0,30.09,SSW,208,2.0,7.0,23,0.00,,,0.00,,2013-03-03 17:11:00,
2013-03-03 10:22:00,57.0,20.0,30.09,SSW,208,2.0,7.0,23,0.00,,,0.00,,2013-03-03 17:22:00,
2013-03-03 10:32:00,60.0,18.0,30.08,SSE,153,2.0,6.0,19,0.00,,,0.00,,2013-03-03 17:32:00,
2013-03-03 10:42:00,60.0,18.0,30.08,SSE,153,2.0,6.0,19,0.00,,,0.00,,2013-03-03 17:42:00,
2013-03-03 10:52:00,60.0,20.0,30.07,SSE,162,2.0,6.0,21,0.00,,,0.00,,2013-03-03 17:52:00,
2013-03-03 11:01:00,61.0,18.0,30.06,SSE,148,3.0,7.0,19,0.00,,,0.00,,2013-03-03 18:01:00,
2013-03-03 11:11:00,61.0,18.0,30.06,SSE,148,3.0,7.0,19,0.00,,,0.00,,2013-03-03 18:11:00,
2013-03-03 11:21:00,64.0,18.0,30.04,ESE,106,2.0,6.0,17,0.00,,,0.00,,2013-03-03 18:21:00,
2013-03-03 11:32:00,66.0,20.0,30.02,SW,217,2.0,7.0,17,0.00,,,0.00,,2013-03-03 18:32:00,
2013-03-03 11:42:00,66.0,20.0,30.02,SW,217,2.0,7.0,17,0.00,,,0.00,,2013-03-03 18:42:00,
2013-03-03 11:52:00,68.0,17.0,30.01,South,173,3.0,9.0,14,0.00,,,0.00,,2013-03-03 18:52:00,
2013-03-03 12:01:00,69.0,16.0,30.00,East,94,2.0,6.0,13,0.00,,,0.00,,2013-03-03 19:01:00,
2013-03-03 12:11:00,69.0,16.0,30.00,East,94,2.0,6.0,13,0.00,,,0.00,,2013-03-03 19:11:00,
2013-03-03 12:22:00,71.0,16.0,29.98,SW,233,1.0,6.0,12,0.00,,,0.00,,2013-03-03 19:22:00,
2013-03-03 12:32:00,74.0,14.0,29.97,SW,235,4.0,9.0,10,0.00,,,0.00,,2013-03-03 19:32:00,
2013-03-03 12:42:00,74.0,14.0,29.97,SW,235,4.0,9.0,10,0.00,,,0.00,,2013-03-03 19:42:00,
2013-03-03 12:52:00,77.0,5.0,29.96,SW,217,6.0,12.0,6,0.00,,,0.00,,2013-03-03 19:52:00,
2013-03-03 13:01:00,77.0,1.0,29.95,WNW,285,5.0,10.0,5,0.00,,,0.00,,2013-03-03 20:01:00,
2013-03-03 13:11:00,77.0,1.0,29.95,WNW,285,5.0,10.0,5,0.00,,,0.00,,2013-03-03 20:11:00,
2013-03-03 13:21:00,78.0,9.0,29.93,WSW,243,8.0,12.0,7,0.00,,,0.00,,2013-03-03 20:21:00,
2013-03-03 13:32:00,77.0,-4.0,29.91,West,261,4.0,10.0,4,0.00,,,0.00,,2013-03-03 20:32:00,
2013-03-03 13:42:00,77.0,-4.0,29.91,West,261,4.0,10.0,4,0.00,,,0.00,,2013-03-03 20:42:00,
2013-03-03 13:53:00,77.0,1.0,29.90,West,280,5.0,12.0,5,0.00,,,0.00,,2013-03-03 20:53:00,
2013-03-03 14:01:00,79.0,6.0,29.89,WSW,245,7.0,13.0,6,0.00,,,0.00,,2013-03-03 21:01:00,
2013-03-03 14:11:00,79.0,6.0,29.89,WSW,245,7.0,13.0,6,0.00,,,0.00,,2013-03-03 21:11:00,
2013-03-03 14:22:00,78.0,-3.0,29.88,WSW,255,7.0,17.0,4,0.00,,,0.00,,2013-03-03 21:22:00,
2013-03-03 14:32:00,79.0,-2.0,29.87,SW,226,6.0,14.0,4,0.00,,,0.00,,2013-03-03 21:32:00,
2013-03-03 14:42:00,79.0,-2.0,29.87,SW,226,6.0,14.0,4,0.00,,,0.00,,2013-03-03 21:42:00,
2013-03-03 14:52:00,79.0,-8.0,29.87,WSW,248,8.0,14.0,3,0.00,,,0.00,,2013-03-03 21:52:00,
2013-03-03 15:01:00,79.0,-8.0,29.86,WSW,255,10.0,17.0,3,0.00,,,0.00,,2013-03-03 22:01:00,
2013-03-03 15:11:00,79.0,-8.0,29.86,WSW,255,10.0,17.0,3,0.00,,,0.00,,2013-03-03 22:11:00,
2013-03-03 15:22:00,79.0,-16.0,29.86,WSW,249,6.0,14.0,2,0.00,,,0.00,,2013-03-03 22:22:00,
2013-03-03 15:32:00,78.0,-9.0,29.86,West,262,5.0,16.0,3,0.00,,,0.00,,2013-03-03 22:32:00,
2013-03-03 15:42:00,78.0,-9.0,29.86,West,262,5.0,16.0,3,0.00,,,0.00,,2013-03-03 22:42:00,
2013-03-03 15:52:00,78.0,-17.0,29.86,NW,304,7.0,18.0,2,0.00,,,0.00,,2013-03-03 22:52:00,
2013-03-03 16:01:00,79.0,-16.0,29.86,West,271,9.0,13.0,2,0.00,,,0.00,,2013-03-03 23:01:00,
2013-03-03 16:11:00,79.0,-16.0,29.86,West,271,9.0,13.0,2,0.00,,,0.00,,2013-03-03 23:11:00,
2013-03-03 16:21:00,78.0,-30.0,29.85,NW,306,8.0,16.0,1,0.00,,,0.00,,2013-03-03 23:21:00,
2013-03-03 16:31:00,76.0,-18.0,29.85,WNW,290,7.0,16.0,2,0.00,,,0.00,,2013-03-03 23:31:00,
2013-03-03 16:42:00,76.0,-18.0,29.85,WNW,290,7.0,16.0,2,0.00,,,0.00,,2013-03-03 23:42:00,
2013-03-03 16:52:00,76.0,-10.0,29.85,West,276,6.0,18.0,3,0.00,,,0.00,,2013-03-03 23:52:00,
2013-03-03 17:01:00,75.0,-11.0,29.86,NW,305,4.0,11.0,3,0.00,,,0.00,,2013-03-04 00:01:00,
2013-03-03 17:11:00,75.0,-11.0,29.86,NW,305,4.0,11.0,3,0.00,,,0.00,,2013-03-04 00:11:00,
2013-03-03 17:21:00,75.0,-11.0,29.86,SW,236,4.0,10.0,3,0.00,,,0.00,,2013-03-04 00:21:00,
2013-03-03 17:32:00,74.0,-12.0,29.86,SW,219,6.0,10.0,3,0.00,,,0.00,,2013-03-04 00:32:00,
2013-03-03 17:42:00,74.0,-12.0,29.86,SW,219,6.0,10.0,3,0.00,,,0.00,,2013-03-04 00:42:00,
2013-03-03 17:52:00,73.0,-2.0,29.87,WNW,282,4.0,9.0,5,0.00,,,0.00,,2013-03-04 00:52:00,
2013-03-03 18:01:00,73.0,-2.0,29.87,SW,226,3.0,9.0,5,0.00,,,0.00,,2013-03-04 01:01:00,
2013-03-03 18:11:00,73.0,-2.0,29.87,SW,226,3.0,9.0,5,0.00,,,0.00,,2013-03-04 01:11:00,
2013-03-03 18:21:00,72.0,-7.0,29.88,WSW,257,6.0,10.0,4,0.00,,,0.00,,2013-03-04 01:21:00,
2013-03-03 18:32:00,72.0,-3.0,29.88,West,273,5.0,10.0,5,0.00,,,0.00,,2013-03-04 01:32:00,
2013-03-03 18:42:00,72.0,-3.0,29.88,West,273,5.0,10.0,5,0.00,,,0.00,,2013-03-04 01:42:00,
2013-03-03 18:52:00,71.0,-3.0,29.89,West,281,3.0,9.0,5,0.00,,,0.00,,2013-03-04 01:52:00,
2013-03-03 19:01:00,70.0,0.0,29.89,West,270,2.0,7.0,6,0.00,,,0.00,,2013-03-04 02:01:00,
2013-03-03 19:11:00,70.0,0.0,29.89,West,270,2.0,7.0,6,0.00,,,0.00,,2013-03-04 02:11:00,
2013-03-03 19:22:00,69.0,2.0,29.89,West,264,1.0,4.0,7,0.00,,,0.00,,2013-03-04 02:22:00,
2013-03-03 19:32:00,69.0,2.0,29.90,WSW,238,1.0,6.0,7,0.00,,,0.00,,2013-03-04 02:32:00,
2013-03-03 19:42:00,69.0,2.0,29.90,WSW,238,1.0,6.0,7,0.00,,,0.00,,2013-03-04 02:42:00,
2013-03-03 19:52:00,68.0,5.0,29.90,West,278,0.0,2.0,8,0.00,,,0.00,,2013-03-04 02:52:00,
2013-03-03 20:01:00,68.0,7.0,29.89,West,269,1.0,4.0,9,0.00,,,0.00,,2013-03-04 03:01:00,
2013-03-03 20:11:00,68.0,7.0,29.89,West,269,1.0,4.0,9,0.00,,,0.00,,2013-03-04 03:11:00,
2013-03-03 20:21:00,67.0,6.0,29.88,SW,235,0.0,3.0,9,0.00,,,0.00,,2013-03-04 03:21:00,
2013-03-03 20:32:00,67.0,6.0,29.89,West,280,1.0,3.0,9,0.00,,,0.00,,2013-03-04 03:32:00,
2013-03-03 20:42:00,66.0,8.0,29.89,WNW,285,0.0,3.0,10,0.00,,,0.00,,2013-03-04 03:42:00,
2013-03-03 20:52:00,66.0,8.0,29.89,WNW,285,0.0,3.0,10,0.00,,,0.00,,2013-03-04 03:52:00,
2013-03-03 21:01:00,66.0,8.0,29.91,WSW,245,0.0,3.0,10,0.00,,,0.00,,2013-03-04 04:01:00,
2013-03-03 21:11:00,66.0,8.0,29.91,WSW,245,0.0,3.0,10,0.00,,,0.00,,2013-03-04 04:11:00,
2013-03-03 21:22:00,66.0,8.0,29.91,WSW,245,0.0,3.0,10,0.00,,,0.00,,2013-03-04 04:22:00,
2013-03-03 21:32:00,65.0,7.0,29.91,SW,225,0.0,2.0,10,0.00,,,0.00,,2013-03-04 04:32:00,
2013-03-03 21:42:00,65.0,7.0,29.91,SW,225,0.0,2.0,10,0.00,,,0.00,,2013-03-04 04:42:00,
2013-03-03 21:51:00,65.0,7.0,29.91,SW,225,0.0,2.0,10,0.00,,,0.00,,2013-03-04 04:51:00,
2013-03-03 22:01:00,63.0,8.0,29.91,NNW,346,0.0,1.0,11,0.00,,,0.00,,2013-03-04 05:01:00,
2013-03-03 22:11:00,63.0,8.0,29.91,NNW,346,0.0,1.0,11,0.00,,,0.00,,2013-03-04 05:11:00,
2013-03-03 22:22:00,63.0,8.0,29.91,NNW,346,0.0,0.0,11,0.00,,,0.00,,2013-03-04 05:22:00,
2013-03-03 22:32:00,63.0,8.0,29.91,NNW,346,0.0,0.0,11,0.00,,,0.00,,2013-03-04 05:32:00,
2013-03-03 22:42:00,63.0,8.0,29.91,NNW,346,0.0,0.0,11,0.00,,,0.00,,2013-03-04 05:42:00,
2013-03-03 22:52:00,63.0,8.0,29.91,NNW,346,0.0,0.0,11,0.00,,,0.00,,2013-03-04 05:52:00,
2013-03-03 23:01:00,61.0,10.0,29.90,NNW,346,0.0,1.0,13,0.00,,,0.00,,2013-03-04 06:01:00,
2013-03-03 23:11:00,61.0,10.0,29.90,NNW,346,0.0,1.0,13,0.00,,,0.00,,2013-03-04 06:11:00,
2013-03-03 23:21:00,59.0,13.0,29.90,ESE,121,0.0,0.0,16,0.00,,,0.00,,2013-03-04 06:21:00,
2013-03-03 23:32:00,58.0,12.0,29.89,ESE,121,0.0,0.0,16,0.00,,,0.00,,2013-03-04 06:32:00,
2013-03-03 23:42:00,58.0,12.0,29.89,ESE,121,0.0,0.0,16,0.00,,,0.00,,2013-03-04 06:42:00,
2013-03-03 23:51:00,57.0,13.0,29.89,ESE,121,0.0,0.0,17,0.00,,,0.00,,2013-03-04 06:51:00,